sensor_id;sensor_type;location;lat;lon;timestamp;P1;durP1;ratioP1;P2;durP2;ratioP2
69703;SDS011;56967;43.538;-5.646;2022-08-19T00:01:46;9.10;;;4.63;;
69703;SDS011;56967;43.538;-5.646;2022-08-19T00:04:14;9.13;;;4.85;;
69703;SDS011;56967;43.538;-5.646;2022-08-19T00:06:41;11.80;;;5.13;;
69703;SDS011;56967;43.538;-5.646;2022-08-19T00:09:10;7.18;;;4.60;;
69703;SDS011;56967;43.538;-5.646;2022-08-19T00:11:37;8.00;;;4.93;;
69703;SDS011;56967;43.538;-5.646;2022-08-19T00:14:04;8.25;;;4.47;;
69703;SDS011;56967;43.538;-5.646;2022-08-19T00:16:31;8.32;;;4.72;;
69703;SDS011;56967;43.538;-5.646;2022-08-19T00:18:57;8.93;;;4.70;;
69703;SDS011;56967;43.538;-5.646;2022-08-19T00:21:23;10.30;;;5.18;;
69703;SDS011;56967;43.538;-5.646;2022-08-19T00:23:51;9.25;;;4.95;;
69703;SDS011;56967;43.538;-5.646;2022-08-19T00:26:18;8.10;;;4.93;;
69703;SDS011;56967;43.538;-5.646;2022-08-19T00:28:44;7.30;;;4.30;;
69703;SDS011;56967;43.538;-5.646;2022-08-19T00:31:10;9.02;;;4.88;;
69703;SDS011;56967;43.538;-5.646;2022-08-19T00:33:36;6.45;;;4.45;;
69703;SDS011;56967;43.538;-5.646;2022-08-19T00:36:03;7.60;;;4.78;;
69703;SDS011;56967;43.538;-5.646;2022-08-19T00:38:31;9.85;;;4.47;;
69703;SDS011;56967;43.538;-5.646;2022-08-19T00:40:57;6.53;;;4.20;;
69703;SDS011;56967;43.538;-5.646;2022-08-19T00:43:24;6.93;;;4.72;;
69703;SDS011;56967;43.538;-5.646;2022-08-19T00:45:51;10.15;;;5.20;;
69703;SDS011;56967;43.538;-5.646;2022-08-19T00:48:17;7.72;;;4.45;;
69703;SDS011;56967;43.538;-5.646;2022-08-19T00:50:44;9.98;;;5.18;;
69703;SDS011;56967;43.538;-5.646;2022-08-19T00:53:12;9.38;;;5.00;;
69703;SDS011;56967;43.538;-5.646;2022-08-19T00:55:43;8.60;;;4.68;;
69703;SDS011;56967;43.538;-5.646;2022-08-19T00:58:12;9.05;;;5.03;;
69703;SDS011;56967;43.538;-5.646;2022-08-19T01:00:40;9.35;;;4.93;;
69703;SDS011;56967;43.538;-5.646;2022-08-19T01:03:07;10.43;;;4.97;;
69703;SDS011;56967;43.538;-5.646;2022-08-19T01:05:34;9.35;;;4.95;;
69703;SDS011;56967;43.538;-5.646;2022-08-19T01:08:02;10.93;;;5.35;;
69703;SDS011;56967;43.538;-5.646;2022-08-19T01:10:30;8.02;;;5.22;;
69703;SDS011;56967;43.538;-5.646;2022-08-19T01:12:58;9.70;;;5.22;;
69703;SDS011;56967;43.538;-5.646;2022-08-19T01:15:29;10.60;;;4.93;;
69703;SDS011;56967;43.538;-5.646;2022-08-19T01:17:58;10.15;;;5.07;;
69703;SDS011;56967;43.538;-5.646;2022-08-19T01:20:26;9.60;;;5.30;;
69703;SDS011;56967;43.538;-5.646;2022-08-19T01:22:53;13.63;;;6.00;;
69703;SDS011;56967;43.538;-5.646;2022-08-19T01:25:24;10.18;;;5.53;;
69703;SDS011;56967;43.538;-5.646;2022-08-19T01:27:56;10.20;;;5.53;;
69703;SDS011;56967;43.538;-5.646;2022-08-19T01:30:26;7.50;;;5.10;;
69703;SDS011;56967;43.538;-5.646;2022-08-19T01:32:54;12.35;;;6.03;;
69703;SDS011;56967;43.538;-5.646;2022-08-19T01:35:21;10.75;;;5.93;;
69703;SDS011;56967;43.538;-5.646;2022-08-19T01:37:56;11.45;;;5.47;;
69703;SDS011;56967;43.538;-5.646;2022-08-19T01:40:24;11.30;;;5.35;;
69703;SDS011;56967;43.538;-5.646;2022-08-19T01:42:52;10.25;;;5.32;;
69703;SDS011;56967;43.538;-5.646;2022-08-19T01:45:19;12.65;;;6.30;;
69703;SDS011;56967;43.538;-5.646;2022-08-19T01:47:47;9.07;;;5.90;;
69703;SDS011;56967;43.538;-5.646;2022-08-19T01:50:13;8.68;;;5.35;;
69703;SDS011;56967;43.538;-5.646;2022-08-19T01:52:40;10.13;;;5.95;;
69703;SDS011;56967;43.538;-5.646;2022-08-19T01:55:08;11.75;;;5.10;;
69703;SDS011;56967;43.538;-5.646;2022-08-19T01:57:36;11.68;;;5.60;;
69703;SDS011;56967;43.538;-5.646;2022-08-19T02:00:05;10.20;;;5.80;;
69703;SDS011;56967;43.538;-5.646;2022-08-19T02:02:34;10.40;;;5.85;;
69703;SDS011;56967;43.538;-5.646;2022-08-19T02:04:59;12.27;;;5.78;;
69703;SDS011;56967;43.538;-5.646;2022-08-19T02:07:25;11.68;;;5.70;;
69703;SDS011;56967;43.538;-5.646;2022-08-19T02:09:51;12.13;;;5.82;;
69703;SDS011;56967;43.538;-5.646;2022-08-19T02:12:16;12.68;;;5.50;;
69703;SDS011;56967;43.538;-5.646;2022-08-19T02:14:42;8.57;;;5.13;;
69703;SDS011;56967;43.538;-5.646;2022-08-19T02:17:07;9.80;;;5.82;;
69703;SDS011;56967;43.538;-5.646;2022-08-19T02:19:33;10.00;;;5.78;;
69703;SDS011;56967;43.538;-5.646;2022-08-19T02:21:59;11.07;;;5.88;;
69703;SDS011;56967;43.538;-5.646;2022-08-19T02:24:26;12.07;;;6.30;;
69703;SDS011;56967;43.538;-5.646;2022-08-19T02:26:52;13.30;;;6.35;;
69703;SDS011;56967;43.538;-5.646;2022-08-19T02:29:18;15.80;;;6.40;;
69703;SDS011;56967;43.538;-5.646;2022-08-19T02:31:44;10.57;;;5.63;;
69703;SDS011;56967;43.538;-5.646;2022-08-19T02:34:10;10.55;;;5.53;;
69703;SDS011;56967;43.538;-5.646;2022-08-19T02:36:35;11.55;;;6.00;;
69703;SDS011;56967;43.538;-5.646;2022-08-19T02:39:01;9.13;;;5.75;;
69703;SDS011;56967;43.538;-5.646;2022-08-19T02:41:29;11.90;;;6.03;;
69703;SDS011;56967;43.538;-5.646;2022-08-19T02:43:56;7.68;;;5.57;;
69703;SDS011;56967;43.538;-5.646;2022-08-19T02:46:25;12.07;;;6.57;;
69703;SDS011;56967;43.538;-5.646;2022-08-19T02:48:52;10.15;;;5.90;;
69703;SDS011;56967;43.538;-5.646;2022-08-19T02:51:20;11.25;;;6.10;;
69703;SDS011;56967;43.538;-5.646;2022-08-19T02:53:47;9.93;;;5.95;;
69703;SDS011;56967;43.538;-5.646;2022-08-19T02:56:13;10.05;;;6.18;;
69703;SDS011;56967;43.538;-5.646;2022-08-19T02:58:39;11.38;;;6.10;;
69703;SDS011;56967;43.538;-5.646;2022-08-19T03:01:05;9.82;;;6.13;;
69703;SDS011;56967;43.538;-5.646;2022-08-19T03:03:30;9.55;;;6.20;;
69703;SDS011;56967;43.538;-5.646;2022-08-19T03:06:11;11.52;;;6.60;;
69703;SDS011;56967;43.538;-5.646;2022-08-19T03:08:40;10.82;;;6.00;;
69703;SDS011;56967;43.538;-5.646;2022-08-19T03:11:12;10.23;;;6.15;;
69703;SDS011;56967;43.538;-5.646;2022-08-19T03:13:39;13.90;;;6.63;;
69703;SDS011;56967;43.538;-5.646;2022-08-19T03:16:04;12.77;;;6.00;;
69703;SDS011;56967;43.538;-5.646;2022-08-19T03:18:30;12.05;;;6.63;;
69703;SDS011;56967;43.538;-5.646;2022-08-19T03:20:56;15.68;;;7.07;;
69703;SDS011;56967;43.538;-5.646;2022-08-19T03:23:21;12.18;;;6.25;;
69703;SDS011;56967;43.538;-5.646;2022-08-19T03:25:48;11.10;;;6.25;;
69703;SDS011;56967;43.538;-5.646;2022-08-19T03:28:15;14.18;;;6.22;;
69703;SDS011;56967;43.538;-5.646;2022-08-19T03:30:42;13.45;;;6.35;;
69703;SDS011;56967;43.538;-5.646;2022-08-19T03:33:21;14.13;;;6.38;;
69703;SDS011;56967;43.538;-5.646;2022-08-19T03:35:46;9.10;;;5.88;;
69703;SDS011;56967;43.538;-5.646;2022-08-19T03:38:12;14.27;;;6.88;;
69703;SDS011;56967;43.538;-5.646;2022-08-19T03:40:37;11.20;;;6.03;;
69703;SDS011;56967;43.538;-5.646;2022-08-19T03:43:03;11.35;;;5.70;;
69703;SDS011;56967;43.538;-5.646;2022-08-19T03:45:28;9.43;;;5.85;;
69703;SDS011;56967;43.538;-5.646;2022-08-19T03:47:54;10.15;;;5.40;;
69703;SDS011;56967;43.538;-5.646;2022-08-19T03:50:20;12.13;;;5.90;;
69703;SDS011;56967;43.538;-5.646;2022-08-19T03:52:49;9.18;;;5.80;;
69703;SDS011;56967;43.538;-5.646;2022-08-19T03:55:16;11.13;;;5.80;;
69703;SDS011;56967;43.538;-5.646;2022-08-19T03:57:42;9.25;;;5.70;;
69703;SDS011;56967;43.538;-5.646;2022-08-19T04:00:08;10.23;;;6.30;;
69703;SDS011;56967;43.538;-5.646;2022-08-19T04:02:34;9.18;;;5.75;;
69703;SDS011;56967;43.538;-5.646;2022-08-19T04:04:59;8.85;;;5.70;;
69703;SDS011;56967;43.538;-5.646;2022-08-19T04:07:25;10.07;;;5.88;;
69703;SDS011;56967;43.538;-5.646;2022-08-19T04:09:51;11.10;;;6.00;;
69703;SDS011;56967;43.538;-5.646;2022-08-19T04:12:17;11.98;;;6.25;;
69703;SDS011;56967;43.538;-5.646;2022-08-19T04:14:45;11.93;;;6.25;;
69703;SDS011;56967;43.538;-5.646;2022-08-19T04:17:11;10.55;;;7.00;;
69703;SDS011;56967;43.538;-5.646;2022-08-19T04:19:39;12.73;;;6.00;;
69703;SDS011;56967;43.538;-5.646;2022-08-19T04:22:05;12.57;;;6.47;;
69703;SDS011;56967;43.538;-5.646;2022-08-19T04:24:31;10.00;;;5.88;;
69703;SDS011;56967;43.538;-5.646;2022-08-19T04:26:59;9.52;;;5.85;;
69703;SDS011;56967;43.538;-5.646;2022-08-19T04:29:27;9.68;;;5.53;;
69703;SDS011;56967;43.538;-5.646;2022-08-19T04:31:55;12.23;;;6.40;;
69703;SDS011;56967;43.538;-5.646;2022-08-19T04:34:23;13.10;;;6.57;;
69703;SDS011;56967;43.538;-5.646;2022-08-19T04:36:50;11.50;;;6.53;;
69703;SDS011;56967;43.538;-5.646;2022-08-19T04:39:18;11.68;;;6.88;;
69703;SDS011;56967;43.538;-5.646;2022-08-19T04:41:46;11.80;;;5.90;;
69703;SDS011;56967;43.538;-5.646;2022-08-19T04:44:31;14.95;;;6.55;;
69703;SDS011;56967;43.538;-5.646;2022-08-19T04:47:00;10.30;;;6.50;;
69703;SDS011;56967;43.538;-5.646;2022-08-19T04:49:26;11.15;;;6.05;;
69703;SDS011;56967;43.538;-5.646;2022-08-19T04:51:52;12.95;;;6.28;;
69703;SDS011;56967;43.538;-5.646;2022-08-19T04:54:19;10.10;;;5.82;;
69703;SDS011;56967;43.538;-5.646;2022-08-19T04:56:47;12.75;;;6.15;;
69703;SDS011;56967;43.538;-5.646;2022-08-19T04:59:15;12.40;;;5.97;;
69703;SDS011;56967;43.538;-5.646;2022-08-19T05:01:42;13.30;;;6.05;;
69703;SDS011;56967;43.538;-5.646;2022-08-19T05:04:08;10.07;;;6.47;;
69703;SDS011;56967;43.538;-5.646;2022-08-19T05:06:34;10.95;;;6.15;;
69703;SDS011;56967;43.538;-5.646;2022-08-19T05:09:02;9.85;;;6.07;;
69703;SDS011;56967;43.538;-5.646;2022-08-19T05:11:30;9.05;;;5.80;;
69703;SDS011;56967;43.538;-5.646;2022-08-19T05:13:58;10.90;;;5.90;;
69703;SDS011;56967;43.538;-5.646;2022-08-19T05:16:24;13.05;;;6.30;;
69703;SDS011;56967;43.538;-5.646;2022-08-19T05:18:51;10.18;;;6.10;;
69703;SDS011;56967;43.538;-5.646;2022-08-19T05:21:35;9.88;;;6.47;;
69703;SDS011;56967;43.538;-5.646;2022-08-19T05:24:20;9.60;;;5.90;;
69703;SDS011;56967;43.538;-5.646;2022-08-19T05:26:48;10.27;;;6.20;;
69703;SDS011;56967;43.538;-5.646;2022-08-19T05:29:15;11.13;;;6.40;;
69703;SDS011;56967;43.538;-5.646;2022-08-19T05:31:44;11.25;;;7.03;;
69703;SDS011;56967;43.538;-5.646;2022-08-19T05:34:10;9.18;;;5.85;;
69703;SDS011;56967;43.538;-5.646;2022-08-19T05:36:38;9.63;;;5.85;;
69703;SDS011;56967;43.538;-5.646;2022-08-19T05:39:06;10.05;;;6.18;;
69703;SDS011;56967;43.538;-5.646;2022-08-19T05:41:32;12.18;;;6.18;;
69703;SDS011;56967;43.538;-5.646;2022-08-19T05:44:01;11.10;;;6.25;;
69703;SDS011;56967;43.538;-5.646;2022-08-19T05:46:31;13.43;;;6.25;;
69703;SDS011;56967;43.538;-5.646;2022-08-19T05:48:56;8.77;;;6.10;;
69703;SDS011;56967;43.538;-5.646;2022-08-19T05:51:22;10.02;;;6.22;;
69703;SDS011;56967;43.538;-5.646;2022-08-19T05:53:49;14.25;;;5.93;;
69703;SDS011;56967;43.538;-5.646;2022-08-19T05:56:16;8.90;;;5.75;;
69703;SDS011;56967;43.538;-5.646;2022-08-19T05:58:44;10.63;;;5.43;;
69703;SDS011;56967;43.538;-5.646;2022-08-19T06:01:14;9.82;;;5.63;;
69703;SDS011;56967;43.538;-5.646;2022-08-19T06:03:42;7.78;;;4.55;;
69703;SDS011;56967;43.538;-5.646;2022-08-19T06:06:09;7.45;;;4.57;;
69703;SDS011;56967;43.538;-5.646;2022-08-19T06:08:36;7.65;;;5.28;;
69703;SDS011;56967;43.538;-5.646;2022-08-19T06:11:13;6.50;;;4.15;;
69703;SDS011;56967;43.538;-5.646;2022-08-19T06:13:49;6.30;;;4.37;;
69703;SDS011;56967;43.538;-5.646;2022-08-19T06:16:18;7.78;;;4.25;;
69703;SDS011;56967;43.538;-5.646;2022-08-19T06:18:53;8.23;;;4.50;;
69703;SDS011;56967;43.538;-5.646;2022-08-19T06:21:23;6.05;;;4.10;;
69703;SDS011;56967;43.538;-5.646;2022-08-19T06:23:50;6.50;;;3.90;;
69703;SDS011;56967;43.538;-5.646;2022-08-19T06:26:17;5.35;;;4.15;;
69703;SDS011;56967;43.538;-5.646;2022-08-19T06:28:44;7.60;;;4.20;;
69703;SDS011;56967;43.538;-5.646;2022-08-19T06:31:14;7.55;;;4.50;;
69703;SDS011;56967;43.538;-5.646;2022-08-19T06:33:42;9.02;;;4.68;;
69703;SDS011;56967;43.538;-5.646;2022-08-19T06:38:52;10.35;;;4.60;;
69703;SDS011;56967;43.538;-5.646;2022-08-19T06:41:18;7.55;;;4.30;;
69703;SDS011;56967;43.538;-5.646;2022-08-19T06:43:43;5.85;;;4.20;;
69703;SDS011;56967;43.538;-5.646;2022-08-19T06:46:13;7.30;;;4.13;;
69703;SDS011;56967;43.538;-5.646;2022-08-19T06:48:39;6.05;;;4.55;;
69703;SDS011;56967;43.538;-5.646;2022-08-19T06:51:06;8.02;;;4.97;;
69703;SDS011;56967;43.538;-5.646;2022-08-19T06:53:32;6.60;;;4.47;;
69703;SDS011;56967;43.538;-5.646;2022-08-19T06:55:58;7.78;;;4.57;;
69703;SDS011;56967;43.538;-5.646;2022-08-19T06:58:25;7.00;;;4.72;;
69703;SDS011;56967;43.538;-5.646;2022-08-19T07:00:51;6.22;;;4.70;;
69703;SDS011;56967;43.538;-5.646;2022-08-19T07:03:16;7.93;;;5.18;;
69703;SDS011;56967;43.538;-5.646;2022-08-19T07:05:42;6.40;;;5.18;;
69703;SDS011;56967;43.538;-5.646;2022-08-19T07:08:08;7.05;;;5.50;;
69703;SDS011;56967;43.538;-5.646;2022-08-19T07:10:34;8.98;;;5.53;;
69703;SDS011;56967;43.538;-5.646;2022-08-19T07:13:01;7.50;;;5.72;;
69703;SDS011;56967;43.538;-5.646;2022-08-19T07:15:28;6.07;;;5.32;;
69703;SDS011;56967;43.538;-5.646;2022-08-19T07:17:53;7.03;;;6.28;;
69703;SDS011;56967;43.538;-5.646;2022-08-19T07:20:19;7.72;;;6.30;;
69703;SDS011;56967;43.538;-5.646;2022-08-19T07:22:45;8.45;;;6.45;;
69703;SDS011;56967;43.538;-5.646;2022-08-19T07:25:10;6.70;;;6.10;;
69703;SDS011;56967;43.538;-5.646;2022-08-19T07:27:38;10.73;;;6.80;;
69703;SDS011;56967;43.538;-5.646;2022-08-19T07:30:04;7.75;;;6.60;;
69703;SDS011;56967;43.538;-5.646;2022-08-19T07:32:30;8.43;;;7.32;;
69703;SDS011;56967;43.538;-5.646;2022-08-19T07:34:56;8.98;;;8.27;;
69703;SDS011;56967;43.538;-5.646;2022-08-19T07:37:22;10.15;;;9.23;;
69703;SDS011;56967;43.538;-5.646;2022-08-19T07:39:48;10.13;;;9.13;;
69703;SDS011;56967;43.538;-5.646;2022-08-19T07:42:14;11.07;;;10.15;;
69703;SDS011;56967;43.538;-5.646;2022-08-19T07:44:39;10.95;;;10.05;;
69703;SDS011;56967;43.538;-5.646;2022-08-19T07:47:06;11.68;;;10.70;;
69703;SDS011;56967;43.538;-5.646;2022-08-19T07:49:31;16.30;;;12.48;;
69703;SDS011;56967;43.538;-5.646;2022-08-19T07:51:58;12.73;;;11.73;;
69703;SDS011;56967;43.538;-5.646;2022-08-19T07:54:31;15.38;;;14.00;;
69703;SDS011;56967;43.538;-5.646;2022-08-19T07:56:59;15.82;;;14.60;;
69703;SDS011;56967;43.538;-5.646;2022-08-19T07:59:25;15.93;;;14.73;;
69703;SDS011;56967;43.538;-5.646;2022-08-19T08:01:51;16.98;;;15.32;;
69703;SDS011;56967;43.538;-5.646;2022-08-19T08:04:17;17.88;;;16.48;;
69703;SDS011;56967;43.538;-5.646;2022-08-19T08:07:03;21.05;;;19.20;;
69703;SDS011;56967;43.538;-5.646;2022-08-19T08:09:47;20.23;;;18.65;;
69703;SDS011;56967;43.538;-5.646;2022-08-19T08:12:17;23.52;;;21.50;;
69703;SDS011;56967;43.538;-5.646;2022-08-19T08:14:51;24.80;;;23.00;;
69703;SDS011;56967;43.538;-5.646;2022-08-19T08:17:19;27.02;;;25.00;;
69703;SDS011;56967;43.538;-5.646;2022-08-19T08:19:46;26.73;;;24.48;;
69703;SDS011;56967;43.538;-5.646;2022-08-19T08:22:14;33.15;;;30.42;;
69703;SDS011;56967;43.538;-5.646;2022-08-19T08:25:03;35.10;;;32.70;;
69703;SDS011;56967;43.538;-5.646;2022-08-19T08:27:31;36.53;;;33.83;;
69703;SDS011;56967;43.538;-5.646;2022-08-19T08:29:57;37.38;;;34.55;;
69703;SDS011;56967;43.538;-5.646;2022-08-19T08:32:23;39.20;;;36.50;;
69703;SDS011;56967;43.538;-5.646;2022-08-19T08:34:48;47.13;;;43.38;;
69703;SDS011;56967;43.538;-5.646;2022-08-19T08:37:14;1999.90;;;999.90;;
69703;SDS011;56967;43.538;-5.646;2022-08-19T08:39:40;1999.90;;;999.90;;
69703;SDS011;56967;43.538;-5.646;2022-08-19T08:47:16;1999.90;;;999.90;;
69703;SDS011;56967;43.538;-5.646;2022-08-19T08:49:54;1999.90;;;999.90;;
69703;SDS011;56967;43.538;-5.646;2022-08-19T08:52:28;1999.90;;;999.90;;
69703;SDS011;56967;43.538;-5.646;2022-08-19T08:55:00;1999.90;;;999.90;;
69703;SDS011;56967;43.538;-5.646;2022-08-19T08:57:35;1999.90;;;999.90;;
69703;SDS011;56967;43.538;-5.646;2022-08-19T09:02:51;1999.90;;;999.90;;
69703;SDS011;56967;43.538;-5.646;2022-08-19T09:05:19;1999.90;;;999.90;;
69703;SDS011;56967;43.538;-5.646;2022-08-19T09:13:31;1999.90;;;999.90;;
69703;SDS011;56967;43.538;-5.646;2022-08-19T09:16:19;1999.90;;;999.90;;
69703;SDS011;56967;43.538;-5.646;2022-08-19T09:18:48;1999.90;;;999.90;;
69703;SDS011;56967;43.538;-5.646;2022-08-19T09:21:18;1999.90;;;999.90;;
69703;SDS011;56967;43.538;-5.646;2022-08-19T09:23:48;1999.90;;;999.90;;
69703;SDS011;56967;43.538;-5.646;2022-08-19T09:26:15;1999.90;;;999.90;;
69703;SDS011;56967;43.538;-5.646;2022-08-19T09:28:45;1999.90;;;999.90;;
69703;SDS011;56967;43.538;-5.646;2022-08-19T09:31:20;1999.90;;;999.90;;
69703;SDS011;56967;43.538;-5.646;2022-08-19T09:33:49;1999.90;;;999.90;;
69703;SDS011;56967;43.538;-5.646;2022-08-19T09:36:17;1999.90;;;999.90;;
69703;SDS011;56967;43.538;-5.646;2022-08-19T09:38:44;27.80;;;25.65;;
69703;SDS011;56967;43.538;-5.646;2022-08-19T09:41:15;11.13;;;4.40;;
69703;SDS011;56967;43.538;-5.646;2022-08-19T09:43:43;9.45;;;4.25;;
69703;SDS011;56967;43.538;-5.646;2022-08-19T09:46:10;6.45;;;3.88;;
69703;SDS011;56967;43.538;-5.646;2022-08-19T09:48:37;9.00;;;4.18;;
69703;SDS011;56967;43.538;-5.646;2022-08-19T09:51:11;8.23;;;4.10;;
69703;SDS011;56967;43.538;-5.646;2022-08-19T09:53:42;8.88;;;4.13;;
69703;SDS011;56967;43.538;-5.646;2022-08-19T09:56:09;6.80;;;3.80;;
69703;SDS011;56967;43.538;-5.646;2022-08-19T09:58:35;9.80;;;4.00;;
69703;SDS011;56967;43.538;-5.646;2022-08-19T10:01:01;8.75;;;4.70;;
69703;SDS011;56967;43.538;-5.646;2022-08-19T10:03:28;12.13;;;4.10;;
69703;SDS011;56967;43.538;-5.646;2022-08-19T10:05:56;11.30;;;4.85;;
69703;SDS011;56967;43.538;-5.646;2022-08-19T10:08:24;13.05;;;5.07;;
69703;SDS011;56967;43.538;-5.646;2022-08-19T10:10:52;7.32;;;4.78;;
69703;SDS011;56967;43.538;-5.646;2022-08-19T10:13:19;12.32;;;6.60;;
69703;SDS011;56967;43.538;-5.646;2022-08-19T10:15:50;9.73;;;5.00;;
69703;SDS011;56967;43.538;-5.646;2022-08-19T10:18:17;10.35;;;5.25;;
69703;SDS011;56967;43.538;-5.646;2022-08-19T10:20:45;12.25;;;5.35;;
69703;SDS011;56967;43.538;-5.646;2022-08-19T10:23:12;11.00;;;5.05;;
69703;SDS011;56967;43.538;-5.646;2022-08-19T10:25:38;8.00;;;4.78;;
69703;SDS011;56967;43.538;-5.646;2022-08-19T10:28:04;10.13;;;5.22;;
69703;SDS011;56967;43.538;-5.646;2022-08-19T10:30:32;8.98;;;4.85;;
69703;SDS011;56967;43.538;-5.646;2022-08-19T10:32:58;6.95;;;4.95;;
69703;SDS011;56967;43.538;-5.646;2022-08-19T10:35:24;11.05;;;5.50;;
69703;SDS011;56967;43.538;-5.646;2022-08-19T10:37:52;11.65;;;5.57;;
69703;SDS011;56967;43.538;-5.646;2022-08-19T10:40:18;11.10;;;5.28;;
69703;SDS011;56967;43.538;-5.646;2022-08-19T10:42:43;11.40;;;5.05;;
69703;SDS011;56967;43.538;-5.646;2022-08-19T10:45:09;10.07;;;5.18;;
69703;SDS011;56967;43.538;-5.646;2022-08-19T10:47:35;9.40;;;5.72;;
69703;SDS011;56967;43.538;-5.646;2022-08-19T10:50:01;11.25;;;5.72;;
69703;SDS011;56967;43.538;-5.646;2022-08-19T10:52:46;8.73;;;5.30;;
69703;SDS011;56967;43.538;-5.646;2022-08-19T10:55:13;9.57;;;5.80;;
69703;SDS011;56967;43.538;-5.646;2022-08-19T10:57:57;12.27;;;5.07;;
69703;SDS011;56967;43.538;-5.646;2022-08-19T11:00:23;14.30;;;6.15;;
69703;SDS011;56967;43.538;-5.646;2022-08-19T11:02:50;9.63;;;5.45;;
69703;SDS011;56967;43.538;-5.646;2022-08-19T11:05:17;11.40;;;5.30;;
69703;SDS011;56967;43.538;-5.646;2022-08-19T11:07:44;10.02;;;5.70;;
69703;SDS011;56967;43.538;-5.646;2022-08-19T11:10:10;8.93;;;5.68;;
69703;SDS011;56967;43.538;-5.646;2022-08-19T11:12:38;9.63;;;5.43;;
69703;SDS011;56967;43.538;-5.646;2022-08-19T11:15:06;9.75;;;5.60;;
69703;SDS011;56967;43.538;-5.646;2022-08-19T11:17:35;9.20;;;4.40;;
69703;SDS011;56967;43.538;-5.646;2022-08-19T11:20:01;8.05;;;3.85;;
69703;SDS011;56967;43.538;-5.646;2022-08-19T11:22:30;9.43;;;3.92;;
69703;SDS011;56967;43.538;-5.646;2022-08-19T11:24:55;7.45;;;4.40;;
69703;SDS011;56967;43.538;-5.646;2022-08-19T11:27:21;6.22;;;3.90;;
69703;SDS011;56967;43.538;-5.646;2022-08-19T11:29:46;9.02;;;4.40;;
69703;SDS011;56967;43.538;-5.646;2022-08-19T11:32:12;7.85;;;4.28;;
69703;SDS011;56967;43.538;-5.646;2022-08-19T11:34:38;11.35;;;4.63;;
69703;SDS011;56967;43.538;-5.646;2022-08-19T11:37:05;8.85;;;4.40;;
69703;SDS011;56967;43.538;-5.646;2022-08-19T11:39:31;7.32;;;4.05;;
69703;SDS011;56967;43.538;-5.646;2022-08-19T11:41:58;7.90;;;4.03;;
69703;SDS011;56967;43.538;-5.646;2022-08-19T11:44:26;7.15;;;3.80;;
69703;SDS011;56967;43.538;-5.646;2022-08-19T11:46:55;9.48;;;3.92;;
69703;SDS011;56967;43.538;-5.646;2022-08-19T11:49:21;9.40;;;3.78;;
69703;SDS011;56967;43.538;-5.646;2022-08-19T11:51:46;8.00;;;4.10;;
69703;SDS011;56967;43.538;-5.646;2022-08-19T11:54:15;6.68;;;3.50;;
69703;SDS011;56967;43.538;-5.646;2022-08-19T11:56:42;7.13;;;3.58;;
69703;SDS011;56967;43.538;-5.646;2022-08-19T11:59:08;6.03;;;3.95;;
69703;SDS011;56967;43.538;-5.646;2022-08-19T12:01:35;5.40;;;3.65;;
69703;SDS011;56967;43.538;-5.646;2022-08-19T12:04:01;6.75;;;3.92;;
69703;SDS011;56967;43.538;-5.646;2022-08-19T12:06:30;8.68;;;4.18;;
69703;SDS011;56967;43.538;-5.646;2022-08-19T12:08:57;8.43;;;4.38;;
69703;SDS011;56967;43.538;-5.646;2022-08-19T12:11:25;12.00;;;4.28;;
69703;SDS011;56967;43.538;-5.646;2022-08-19T12:13:51;10.10;;;4.20;;
69703;SDS011;56967;43.538;-5.646;2022-08-19T12:16:24;6.05;;;3.90;;
69703;SDS011;56967;43.538;-5.646;2022-08-19T12:18:51;7.78;;;3.92;;
69703;SDS011;56967;43.538;-5.646;2022-08-19T12:21:22;12.05;;;4.35;;
69703;SDS011;56967;43.538;-5.646;2022-08-19T12:23:53;8.52;;;4.05;;
69703;SDS011;56967;43.538;-5.646;2022-08-19T12:26:19;9.32;;;4.80;;
69703;SDS011;56967;43.538;-5.646;2022-08-19T12:28:46;10.35;;;4.13;;
69703;SDS011;56967;43.538;-5.646;2022-08-19T12:31:13;7.10;;;3.85;;
69703;SDS011;56967;43.538;-5.646;2022-08-19T12:33:39;8.93;;;3.88;;
69703;SDS011;56967;43.538;-5.646;2022-08-19T12:36:07;7.03;;;4.03;;
69703;SDS011;56967;43.538;-5.646;2022-08-19T12:38:35;8.65;;;4.18;;
69703;SDS011;56967;43.538;-5.646;2022-08-19T12:41:01;7.38;;;3.90;;
69703;SDS011;56967;43.538;-5.646;2022-08-19T12:43:30;7.72;;;3.90;;
69703;SDS011;56967;43.538;-5.646;2022-08-19T12:45:56;6.55;;;4.22;;
69703;SDS011;56967;43.538;-5.646;2022-08-19T12:48:22;7.97;;;4.20;;
69703;SDS011;56967;43.538;-5.646;2022-08-19T12:50:47;6.80;;;4.40;;
69703;SDS011;56967;43.538;-5.646;2022-08-19T12:53:13;5.85;;;3.88;;
69703;SDS011;56967;43.538;-5.646;2022-08-19T12:55:39;11.45;;;4.28;;
69703;SDS011;56967;43.538;-5.646;2022-08-19T12:58:05;7.78;;;4.30;;
69703;SDS011;56967;43.538;-5.646;2022-08-19T13:00:31;10.43;;;4.35;;
69703;SDS011;56967;43.538;-5.646;2022-08-19T13:02:59;6.15;;;4.15;;
69703;SDS011;56967;43.538;-5.646;2022-08-19T13:05:26;11.73;;;4.40;;
69703;SDS011;56967;43.538;-5.646;2022-08-19T13:07:55;8.80;;;4.57;;
69703;SDS011;56967;43.538;-5.646;2022-08-19T13:10:23;9.50;;;4.28;;
69703;SDS011;56967;43.538;-5.646;2022-08-19T13:12:52;9.35;;;4.07;;
69703;SDS011;56967;43.538;-5.646;2022-08-19T13:15:19;8.45;;;3.85;;
69703;SDS011;56967;43.538;-5.646;2022-08-19T13:17:46;8.07;;;3.92;;
69703;SDS011;56967;43.538;-5.646;2022-08-19T13:20:17;9.00;;;4.07;;
69703;SDS011;56967;43.538;-5.646;2022-08-19T13:22:44;11.70;;;4.60;;
69703;SDS011;56967;43.538;-5.646;2022-08-19T13:25:11;8.10;;;3.70;;
69703;SDS011;56967;43.538;-5.646;2022-08-19T13:27:38;9.07;;;4.30;;
69703;SDS011;56967;43.538;-5.646;2022-08-19T13:30:05;8.48;;;4.03;;
69703;SDS011;56967;43.538;-5.646;2022-08-19T13:32:51;7.20;;;3.75;;
69703;SDS011;56967;43.538;-5.646;2022-08-19T13:35:38;10.10;;;4.00;;
69703;SDS011;56967;43.538;-5.646;2022-08-19T13:38:26;8.85;;;3.90;;
69703;SDS011;56967;43.538;-5.646;2022-08-19T13:40:52;8.50;;;3.97;;
69703;SDS011;56967;43.538;-5.646;2022-08-19T13:43:20;7.72;;;4.20;;
69703;SDS011;56967;43.538;-5.646;2022-08-19T13:45:47;10.32;;;4.50;;
69703;SDS011;56967;43.538;-5.646;2022-08-19T13:48:14;13.15;;;5.05;;
69703;SDS011;56967;43.538;-5.646;2022-08-19T13:50:41;9.27;;;3.67;;
69703;SDS011;56967;43.538;-5.646;2022-08-19T13:53:10;6.60;;;3.58;;
69703;SDS011;56967;43.538;-5.646;2022-08-19T13:55:38;6.90;;;3.97;;
69703;SDS011;56967;43.538;-5.646;2022-08-19T13:58:06;6.20;;;3.33;;
69703;SDS011;56967;43.538;-5.646;2022-08-19T14:00:34;7.07;;;3.88;;
69703;SDS011;56967;43.538;-5.646;2022-08-19T14:03:02;8.52;;;3.80;;
69703;SDS011;56967;43.538;-5.646;2022-08-19T14:05:28;7.38;;;3.78;;
69703;SDS011;56967;43.538;-5.646;2022-08-19T14:07:54;5.15;;;3.47;;
69703;SDS011;56967;43.538;-5.646;2022-08-19T14:10:21;7.72;;;3.67;;
69703;SDS011;56967;43.538;-5.646;2022-08-19T14:12:48;5.80;;;3.70;;
69703;SDS011;56967;43.538;-5.646;2022-08-19T14:15:14;5.03;;;3.03;;
69703;SDS011;56967;43.538;-5.646;2022-08-19T14:17:41;7.47;;;3.60;;
69703;SDS011;56967;43.538;-5.646;2022-08-19T14:20:09;6.63;;;3.58;;
69703;SDS011;56967;43.538;-5.646;2022-08-19T14:22:36;5.30;;;3.25;;
69703;SDS011;56967;43.538;-5.646;2022-08-19T14:25:03;9.73;;;3.60;;
69703;SDS011;56967;43.538;-5.646;2022-08-19T14:27:32;5.90;;;3.28;;
69703;SDS011;56967;43.538;-5.646;2022-08-19T14:29:59;6.72;;;3.35;;
69703;SDS011;56967;43.538;-5.646;2022-08-19T14:32:24;6.00;;;3.20;;
69703;SDS011;56967;43.538;-5.646;2022-08-19T14:34:52;10.07;;;3.50;;
69703;SDS011;56967;43.538;-5.646;2022-08-19T14:37:19;8.02;;;4.00;;
69703;SDS011;56967;43.538;-5.646;2022-08-19T14:39:45;7.68;;;3.60;;
69703;SDS011;56967;43.538;-5.646;2022-08-19T14:42:11;9.18;;;3.38;;
69703;SDS011;56967;43.538;-5.646;2022-08-19T14:44:39;9.40;;;3.70;;